Albertville, Wisconsin
Current Conditions -  °F | °C
As of 11:20 PM on Thursday 30 Oct 2014 (Local Time) from KLUM Reporting Station
Broken Clouds Broken Clouds  
Wind Chill: 23°   Ceiling: 5500
Heat Index: 35°   Visibility: 10mi
Dew Point: 16°   Wind: 22mph
Humidity: 46%   Direction: 330°NNW
Pressure: 30.26"   Gusts: 33mph
Location:  45.0099°N, 91.7075°W
Report Text: KLUM 310420Z AUTO 33019G29KT 10SM SCT045 BKN055 02/M09 A3026 RMK AO2 T00151090
Loading
Personal Weather Stations






























Interactive Weather Map
Tropical Storm Tracking
New forecast layout! Learn more

10-Day Weather Forecast

Advertisements
Track Severe Weather on mobile